createdAt,value
2016-12-16T00:00:21.684Z,87.73
2016-12-16T00:01:21.698Z,87.73
2016-12-16T00:02:36.634Z,87.83
2016-12-16T00:03:21.732Z,88.21
2016-12-16T00:04:21.751Z,88.3
2016-12-16T00:05:21.763Z,88.49
2016-12-16T00:06:21.783Z,88.4
2016-12-16T00:07:21.797Z,88.11
2016-12-16T00:08:21.816Z,88.3
2016-12-16T00:09:21.831Z,88.11
2016-12-16T00:10:21.848Z,88.11
2016-12-16T00:11:21.864Z,88.11
2016-12-16T00:13:21.896Z,87.73
2016-12-16T00:14:21.914Z,87.73
2016-12-16T00:15:21.932Z,87.73
2016-12-16T00:16:21.946Z,88.21
2016-12-16T00:17:21.962Z,87.83
2016-12-16T00:18:36.898Z,88.11
2016-12-16T00:19:21.995Z,88.3
2016-12-16T00:20:22.014Z,88.11
2016-12-16T00:21:22.028Z,88.11
2016-12-16T00:22:22.046Z,88.3
2016-12-16T00:23:22.061Z,88.96
2016-12-16T00:24:22.079Z,88.59
2016-12-16T00:25:22.095Z,88.78
2016-12-16T00:26:22.110Z,88.96
2016-12-16T00:27:22.130Z,88.78
2016-12-16T00:28:22.143Z,88.11
2016-12-16T00:29:22.159Z,88.11
2016-12-16T00:30:22.177Z,87.92
2016-12-16T00:31:22.193Z,87.92
2016-12-16T00:32:22.209Z,88.4
2016-12-16T00:33:22.225Z,88.68
2016-12-16T00:34:37.159Z,89.06
2016-12-16T00:35:22.256Z,88.87
2016-12-16T00:36:22.276Z,88.68
2016-12-16T00:37:22.290Z,88.3
2016-12-16T00:38:22.307Z,88.87
2016-12-16T00:39:22.324Z,89.25
2016-12-16T00:40:22.342Z,88.78
2016-12-16T00:41:22.356Z,88.96
2016-12-16T00:42:22.374Z,88.96
2016-12-16T00:43:22.389Z,89.06
2016-12-16T00:44:22.405Z,89.25
2016-12-16T00:46:22.438Z,88.96
2016-12-16T00:47:22.458Z,88.87
2016-12-16T00:48:22.471Z,88.21
2016-12-16T00:49:37.406Z,88.4
2016-12-16T00:50:22.507Z,88.68
2016-12-16T00:51:22.521Z,88.3
2016-12-16T00:52:22.536Z,88.96
2016-12-16T00:53:22.552Z,88.96
2016-12-16T00:54:22.570Z,88.78
2016-12-16T00:55:22.586Z,88.3
2016-12-16T00:56:22.603Z,89.06
2016-12-16T00:57:22.618Z,88.96
2016-12-16T00:58:22.634Z,88.68
2016-12-16T00:59:22.654Z,88.96
2016-12-16T01:01:22.685Z,88.68
2016-12-16T01:02:22.700Z,88.49
2016-12-16T01:03:22.717Z,89.06
2016-12-16T01:04:22.734Z,88.87
2016-12-16T01:05:22.750Z,88.87
2016-12-16T01:06:22.768Z,89.06
2016-12-16T01:07:22.782Z,88.96
2016-12-16T01:08:22.800Z,88.87
2016-12-16T01:09:22.815Z,89.15
2016-12-16T01:10:22.831Z,88.96
2016-12-16T01:11:22.851Z,88.96
2016-12-16T01:12:22.864Z,89.15
2016-12-16T01:13:22.881Z,89.06
2016-12-16T01:16:22.929Z,88.68
2016-12-16T01:18:22.963Z,89.06
2016-12-16T01:19:22.980Z,88.96
2016-12-16T01:20:22.997Z,89.06
2016-12-16T01:21:37.930Z,88.96
2016-12-16T01:22:23.028Z,88.87
2016-12-16T01:23:23.045Z,89.06
2016-12-16T01:24:23.060Z,89.06
2016-12-16T01:25:23.077Z,89.15
2016-12-16T01:26:23.093Z,89.15
2016-12-16T01:27:23.162Z,88.68
2016-12-16T01:28:23.125Z,89.15
2016-12-16T01:29:23.143Z,89.25
2016-12-16T01:30:23.160Z,88.78
2016-12-16T01:31:23.175Z,89.06
2016-12-16T01:32:23.192Z,89.15
2016-12-16T01:33:23.208Z,89.44
2016-12-16T01:34:23.224Z,89.34
2016-12-16T01:35:23.241Z,89.53
2016-12-16T01:36:23.256Z,89.72
2016-12-16T01:37:38.193Z,89.06
2016-12-16T01:38:23.291Z,89.25
2016-12-16T01:39:23.306Z,89.44
2016-12-16T01:40:23.322Z,89.25
2016-12-16T01:41:23.340Z,89.15
2016-12-16T01:42:23.354Z,88.78
2016-12-16T01:43:23.373Z,88.78
2016-12-16T01:44:23.389Z,89.15
2016-12-16T01:46:23.428Z,89.15
2016-12-16T01:47:23.436Z,89.34
2016-12-16T01:48:23.455Z,88.68
2016-12-16T01:50:23.488Z,88.78
2016-12-16T01:51:23.502Z,89.15
2016-12-16T01:52:23.519Z,89.34
2016-12-16T01:53:38.456Z,89.34
2016-12-16T01:54:23.551Z,88.68
2016-12-16T01:55:23.618Z,88.78
2016-12-16T01:56:23.583Z,88.87
2016-12-16T01:57:23.600Z,89.25
2016-12-16T01:58:23.618Z,89.15
2016-12-16T01:59:23.636Z,89.06
2016-12-16T02:01:23.664Z,89.15
2016-12-16T02:02:23.681Z,89.44
2016-12-16T02:03:23.698Z,89.06
2016-12-16T02:04:23.718Z,89.15
2016-12-16T02:05:23.732Z,89.44
2016-12-16T02:06:23.748Z,88.96
2016-12-16T02:07:23.763Z,89.72
2016-12-16T02:08:23.780Z,89.06
2016-12-16T02:09:38.714Z,89.25
2016-12-16T02:10:23.818Z,89.34
2016-12-16T02:11:23.830Z,89.34
2016-12-16T02:12:23.845Z,89.15
2016-12-16T02:13:23.864Z,89.53
2016-12-16T02:14:23.878Z,89.15
2016-12-16T02:15:23.893Z,89.72
2016-12-16T02:16:23.910Z,89.53
2016-12-16T02:17:23.927Z,89.72
2016-12-16T02:19:23.960Z,89.72
2016-12-16T02:20:23.976Z,89.82
2016-12-16T02:21:23.992Z,89.63
2016-12-16T02:22:24.011Z,89.53
2016-12-16T02:23:24.025Z,89.53
2016-12-16T02:24:38.960Z,89.63
2016-12-16T02:25:24.059Z,89.53
2016-12-16T02:26:24.074Z,89.15
2016-12-16T02:27:24.092Z,88.96
2016-12-16T02:28:24.106Z,89.63
2016-12-16T02:29:24.124Z,89.91
2016-12-16T02:30:24.140Z,89.34
2016-12-16T02:31:24.156Z,89.53
2016-12-16T02:32:24.173Z,89.91
2016-12-16T02:33:24.190Z,89.15
2016-12-16T02:34:24.256Z,89.72
2016-12-16T02:36:24.239Z,89.91
2016-12-16T02:37:24.253Z,89.34
2016-12-16T02:38:24.270Z,89.63
2016-12-16T02:39:24.288Z,89.72
2016-12-16T02:40:24.303Z,89.63
2016-12-16T02:41:24.324Z,89.44
2016-12-16T02:42:24.335Z,89.53
2016-12-16T02:43:24.352Z,90.29
2016-12-16T02:44:24.368Z,90.29
2016-12-16T02:45:24.385Z,89.91
2016-12-16T02:46:24.402Z,90.29
2016-12-16T02:47:24.418Z,90.48
2016-12-16T02:48:24.435Z,90.48
2016-12-16T02:49:24.450Z,90.67
2016-12-16T02:51:24.486Z,90.29
2016-12-16T02:53:24.517Z,90.58
2016-12-16T02:54:24.534Z,91.14
2016-12-16T02:55:24.549Z,90.77
2016-12-16T02:56:39.484Z,91.43
2016-12-16T02:57:24.583Z,90.77
2016-12-16T02:58:24.599Z,90.86
2016-12-16T02:59:24.614Z,91.14
2016-12-16T03:00:24.633Z,90.29
2016-12-16T03:01:24.649Z,90.58
2016-12-16T03:02:24.664Z,90.77
2016-12-16T03:03:24.679Z,90.77
2016-12-16T03:04:24.698Z,91.05
2016-12-16T03:05:24.713Z,91.14
2016-12-16T03:06:24.784Z,91.14
2016-12-16T03:07:24.747Z,90.77
2016-12-16T03:09:24.778Z,90.58
2016-12-16T03:10:24.796Z,90.48
2016-12-16T03:11:24.810Z,90.77
2016-12-16T03:12:39.745Z,90.67
2016-12-16T03:13:24.845Z,90.86
2016-12-16T03:14:24.860Z,90.58
2016-12-16T03:15:24.876Z,91.24
2016-12-16T03:16:24.894Z,90.39
2016-12-16T03:17:24.912Z,90.39
2016-12-16T03:18:24.929Z,90.86
2016-12-16T03:19:24.940Z,90.48
2016-12-16T03:20:24.960Z,90.48
2016-12-16T03:21:24.976Z,90.95
2016-12-16T03:22:24.989Z,91.05
2016-12-16T03:23:25.009Z,90.67
2016-12-16T03:26:25.054Z,90.86
2016-12-16T03:27:25.073Z,90.77
2016-12-16T03:28:40.005Z,91.43
2016-12-16T03:29:25.103Z,91.52
2016-12-16T03:30:25.120Z,91.24
2016-12-16T03:31:25.138Z,91.14
2016-12-16T03:32:25.153Z,90.95
2016-12-16T03:33:25.169Z,90.58
2016-12-16T03:34:25.186Z,90.48
2016-12-16T03:35:25.202Z,90.58
2016-12-16T03:36:25.223Z,90.48
2016-12-16T03:37:25.234Z,90.48
2016-12-16T03:38:25.250Z,91.05
2016-12-16T03:39:25.266Z,90.48
2016-12-16T03:40:25.283Z,90.58
2016-12-16T03:41:25.299Z,90.48
2016-12-16T03:42:25.315Z,90.86
2016-12-16T03:43:25.331Z,90.48
2016-12-16T03:44:40.266Z,90.86
2016-12-16T03:45:25.395Z,90.77
2016-12-16T03:46:25.381Z,90.95
2016-12-16T03:47:25.396Z,90.77
2016-12-16T03:48:25.412Z,90.29
2016-12-16T03:50:25.444Z,90.48
2016-12-16T03:51:25.462Z,90.01
2016-12-16T03:52:25.478Z,90.01
2016-12-16T03:53:25.495Z,89.91
2016-12-16T03:54:25.512Z,90.01
2016-12-16T03:56:25.546Z,90.2
2016-12-16T03:57:25.559Z,90.1
2016-12-16T03:58:25.574Z,90.01
2016-12-16T03:59:40.511Z,90.67
2016-12-16T04:00:25.608Z,90.2
2016-12-16T04:01:25.626Z,90.67
2016-12-16T04:02:25.641Z,90.81
2016-12-16T04:03:25.657Z,91.19
2016-12-16T04:04:25.673Z,91.67
2016-12-16T04:05:25.691Z,91.76
2016-12-16T04:06:25.706Z,91.76
2016-12-16T04:07:25.722Z,92.05
2016-12-16T04:08:25.738Z,92.24
2016-12-16T04:09:25.757Z,92.05
2016-12-16T04:10:25.772Z,92.8
2016-12-16T04:11:25.798Z,92.71
2016-12-16T04:12:25.806Z,92.8
2016-12-16T04:13:25.820Z,93.18
2016-12-16T04:14:25.835Z,92.99
2016-12-16T04:15:25.851Z,93.27
2016-12-16T04:16:25.867Z,93.56
2016-12-16T04:17:25.884Z,93.65
2016-12-16T04:18:25.900Z,93.42
2016-12-16T04:19:25.916Z,93.37
2016-12-16T04:20:25.931Z,93.56
2016-12-16T04:21:25.947Z,93.27
2016-12-16T04:22:25.963Z,94.23
2016-12-16T04:23:25.981Z,93.89
2016-12-16T04:24:25.995Z,93.8
2016-12-16T04:25:26.015Z,93.89
2016-12-16T04:26:26.027Z,94.18
2016-12-16T04:28:26.060Z,94.74
2016-12-16T04:29:26.079Z,94.74
2016-12-16T04:30:26.091Z,94.65
2016-12-16T04:31:41.025Z,94.56
2016-12-16T04:32:26.122Z,94.46
2016-12-16T04:33:26.141Z,95.03
2016-12-16T04:34:26.154Z,95.21
2016-12-16T04:35:26.171Z,95.03
2016-12-16T04:36:26.187Z,95.12
2016-12-16T04:37:26.204Z,95.31
2016-12-16T04:38:26.218Z,95.5
2016-12-16T04:39:26.234Z,95.31
2016-12-16T04:40:26.249Z,94.93
2016-12-16T04:41:26.268Z,95.31
2016-12-16T04:42:26.280Z,95.12
2016-12-16T04:43:26.297Z,95.5
2016-12-16T04:44:26.314Z,95.5
2016-12-16T04:45:26.379Z,95.31
2016-12-16T04:46:26.345Z,95.69
2016-12-16T04:47:41.278Z,95.5
2016-12-16T04:48:26.376Z,95.31
2016-12-16T04:49:26.393Z,95.69
2016-12-16T04:50:26.411Z,95.88
2016-12-16T04:51:26.425Z,95.69
2016-12-16T04:52:26.439Z,95.88
2016-12-16T04:53:26.461Z,95.5
2016-12-16T04:54:26.470Z,95.69
2016-12-16T04:55:26.501Z,95.78
2016-12-16T04:56:26.501Z,95.97
2016-12-16T04:57:26.517Z,95.78
2016-12-16T05:00:26.565Z,95.97
2016-12-16T05:01:26.583Z,95.5
2016-12-16T05:02:26.598Z,95.4
2016-12-16T05:03:41.532Z,95.97
2016-12-16T05:04:26.627Z,95.69
2016-12-16T05:05:26.644Z,95.78
2016-12-16T05:06:26.659Z,96.07
2016-12-16T05:07:26.674Z,96.16
2016-12-16T05:08:26.692Z,96.26
2016-12-16T05:09:26.707Z,96.07
2016-12-16T05:10:26.723Z,96.16
2016-12-16T05:11:26.738Z,96.16
2016-12-16T05:12:26.753Z,95.69
2016-12-16T05:13:26.769Z,95.97
2016-12-16T05:14:26.790Z,95.78
2016-12-16T05:15:26.800Z,95.78
2016-12-16T05:16:26.848Z,95.78
2016-12-16T05:17:26.831Z,95.78
2016-12-16T05:18:26.847Z,96.26
2016-12-16T05:19:41.781Z,96.64
2016-12-16T05:20:26.882Z,96.45
2016-12-16T05:21:26.895Z,96.35
2016-12-16T05:22:26.909Z,96.54
2016-12-16T05:23:26.925Z,96.64
2016-12-16T05:24:26.948Z,96.64
2016-12-16T05:25:26.960Z,96.92
2016-12-16T05:26:26.972Z,96.64
2016-12-16T05:27:26.990Z,96.64
2016-12-16T05:29:27.019Z,96.64
2016-12-16T05:30:27.036Z,96.45
2016-12-16T05:31:27.056Z,96.78
2016-12-16T05:32:27.066Z,96.88
2016-12-16T05:33:27.086Z,96.69
2016-12-16T05:34:42.019Z,97.34
2016-12-16T05:35:27.114Z,97.25
2016-12-16T05:36:27.129Z,97.34
2016-12-16T05:37:27.146Z,98.1
2016-12-16T05:38:27.161Z,96.88
2016-12-16T05:39:27.177Z,97.25
2016-12-16T05:40:27.194Z,96.88
2016-12-16T05:41:27.207Z,97.72
2016-12-16T05:42:27.223Z,97.82
2016-12-16T05:43:27.239Z,98.01
2016-12-16T05:44:27.253Z,98.01
2016-12-16T05:45:27.269Z,97.53
2016-12-16T05:46:27.285Z,98.2
2016-12-16T05:48:27.316Z,98.29
2016-12-16T05:49:27.331Z,98.67
2016-12-16T05:50:27.348Z,98.48
2016-12-16T05:51:27.363Z,98.58
2016-12-16T05:52:27.379Z,98.48
2016-12-16T05:53:27.393Z,98.39
2016-12-16T05:54:27.407Z,98.48
2016-12-16T05:55:27.423Z,97.72
2016-12-16T05:56:27.439Z,97.91
2016-12-16T05:57:27.456Z,98.67
2016-12-16T05:58:27.472Z,98.48
2016-12-16T05:59:27.487Z,98.86
2016-12-16T06:02:27.531Z,98.96
2016-12-16T06:03:27.548Z,98.67
2016-12-16T06:04:27.567Z,98.67
2016-12-16T06:05:27.581Z,98.67
2016-12-16T06:06:42.511Z,98.86
2016-12-16T06:07:27.609Z,98.86
2016-12-16T06:08:27.626Z,98.58
2016-12-16T06:09:27.690Z,99.15
2016-12-16T06:10:27.655Z,99.33
2016-12-16T06:11:27.670Z,98.96
2016-12-16T06:12:27.686Z,98.67
2016-12-16T06:13:27.701Z,99.15
2016-12-16T06:14:27.716Z,99.05
2016-12-16T06:15:27.731Z,99.43
2016-12-16T06:16:27.747Z,99.43
2016-12-16T06:18:27.778Z,99.9
2016-12-16T06:19:27.793Z,99.62
2016-12-16T06:20:28.112Z,99.9
2016-12-16T06:21:27.823Z,99.99
2016-12-16T06:22:42.756Z,99.99
2016-12-16T06:23:27.855Z,99.99
2016-12-16T06:24:27.868Z,99.99
2016-12-16T06:25:27.885Z,99.99
2016-12-16T06:26:27.900Z,99.99
2016-12-16T06:27:27.914Z,99.99
2016-12-16T06:28:27.932Z,99.99
2016-12-16T06:29:27.946Z,99.99
2016-12-16T06:30:27.964Z,99.99
2016-12-16T06:31:27.974Z,99.99
2016-12-16T06:32:27.990Z,99.99
2016-12-16T06:33:28.011Z,99.99
2016-12-16T06:34:28.022Z,99.99
2016-12-16T06:35:28.037Z,99.99
2016-12-16T06:36:28.053Z,99.99
2016-12-16T06:37:28.071Z,99.99
2016-12-16T06:38:42.999Z,99.99
2016-12-16T06:39:28.097Z,99.99
2016-12-16T06:40:28.112Z,99.99
2016-12-16T06:41:28.127Z,99.99
2016-12-16T06:42:28.142Z,99.99
2016-12-16T06:43:28.159Z,99.99
2016-12-16T06:44:28.175Z,99.99
2016-12-16T06:45:28.190Z,99.99
2016-12-16T06:46:28.203Z,99.99
2016-12-16T06:47:28.222Z,99.99
2016-12-16T06:48:28.233Z,99.99
2016-12-16T06:51:28.278Z,99.99
2016-12-16T06:52:28.345Z,99.99
2016-12-16T06:53:28.310Z,99.99
2016-12-16T06:54:43.241Z,99.99
2016-12-16T06:55:28.339Z,99.99
2016-12-16T06:56:28.356Z,99.99
2016-12-16T06:57:28.368Z,99.99
2016-12-16T06:58:28.387Z,99.99
2016-12-16T06:59:28.399Z,99.99
2016-12-16T07:00:28.414Z,99.99
2016-12-16T07:01:28.431Z,99.99
2016-12-16T07:02:28.444Z,99.99
2016-12-16T07:04:28.473Z,99.99
2016-12-16T07:05:28.489Z,99.99
2016-12-16T07:06:28.505Z,99.99
2016-12-16T07:07:28.569Z,99.99
2016-12-16T07:08:28.537Z,99.99
2016-12-16T07:09:43.468Z,99.99
2016-12-16T07:10:28.567Z,99.99
2016-12-16T07:11:28.579Z,99.99
2016-12-16T07:12:28.899Z,99.99
2016-12-16T07:13:28.611Z,99.99
2016-12-16T07:14:28.627Z,99.99
2016-12-16T07:15:28.640Z,99.99
2016-12-16T07:16:28.656Z,99.99
2016-12-16T07:18:28.690Z,99.99
2016-12-16T07:19:28.700Z,99.99
2016-12-16T07:21:28.732Z,99.99
2016-12-16T07:23:28.761Z,99.99
2016-12-16T07:24:28.775Z,99.99
2016-12-16T07:25:28.793Z,99.99
2016-12-16T07:26:28.805Z,99.99
2016-12-16T07:27:28.824Z,99.99
2016-12-16T07:28:28.837Z,99.99
2016-12-16T07:29:28.851Z,99.99
2016-12-16T07:30:28.867Z,99.99
2016-12-16T07:31:28.883Z,99.99
2016-12-16T07:32:28.899Z,99.99
2016-12-16T07:33:28.910Z,99.99
2016-12-16T07:34:28.927Z,99.99
2016-12-16T07:35:28.941Z,99.99
2016-12-16T07:36:28.957Z,99.99
2016-12-16T07:38:28.990Z,99.99
2016-12-16T07:39:29.001Z,99.99
2016-12-16T07:40:29.016Z,99.99
2016-12-16T07:41:43.948Z,99.99
2016-12-16T07:42:29.045Z,99.99
2016-12-16T07:43:29.060Z,99.99
2016-12-16T07:44:29.077Z,99.99
2016-12-16T07:45:29.090Z,99.99
2016-12-16T07:46:29.108Z,99.99
2016-12-16T07:47:29.121Z,99.99
2016-12-16T07:48:29.144Z,99.99
2016-12-16T07:49:29.151Z,99.99
2016-12-16T07:50:29.167Z,99.99
2016-12-16T07:51:29.181Z,99.99
2016-12-16T07:52:29.251Z,99.99
2016-12-16T07:53:29.217Z,99.99
2016-12-16T07:54:29.227Z,99.99
2016-12-16T07:55:29.242Z,99.99
2016-12-16T07:56:29.306Z,99.99
2016-12-16T07:57:44.189Z,99.99
2016-12-16T07:58:29.286Z,99.99
2016-12-16T07:59:29.302Z,99.99
2016-12-16T08:00:29.315Z,99.99
2016-12-16T08:01:29.333Z,99.99
2016-12-16T08:02:29.350Z,99.99
2016-12-16T08:03:29.670Z,99.99
2016-12-16T08:05:29.393Z,99.99
2016-12-16T08:06:29.406Z,99.99
2016-12-16T08:07:29.427Z,99.99
2016-12-16T08:09:29.453Z,99.99
2016-12-16T08:10:29.468Z,99.99
2016-12-16T08:11:29.483Z,99.99
2016-12-16T08:12:29.498Z,99.99
2016-12-16T08:13:44.430Z,99.99
2016-12-16T08:14:29.561Z,99.99
2016-12-16T08:15:29.543Z,99.99
2016-12-16T08:16:29.559Z,99.99
2016-12-16T08:17:29.573Z,99.99
2016-12-16T08:18:29.588Z,99.99
2016-12-16T08:19:29.607Z,99.99
2016-12-16T08:20:29.620Z,99.99
2016-12-16T08:21:29.634Z,99.99
2016-12-16T08:22:29.653Z,99.99
2016-12-16T08:23:29.691Z,99.99
2016-12-16T08:24:29.679Z,99.99
2016-12-16T08:26:29.711Z,99.99
2016-12-16T08:27:29.726Z,99.99
2016-12-16T08:28:29.741Z,99.99
2016-12-16T08:29:44.674Z,99.99
2016-12-16T08:30:29.772Z,99.99
2016-12-16T08:31:29.787Z,99.99
2016-12-16T08:32:29.802Z,99.99
2016-12-16T08:33:29.817Z,99.99
2016-12-16T08:34:29.835Z,99.99
2016-12-16T08:35:29.847Z,99.99
2016-12-16T08:36:29.864Z,99.99
2016-12-16T08:37:29.879Z,99.99
2016-12-16T08:38:29.895Z,99.99
2016-12-16T08:39:29.911Z,99.99
2016-12-16T08:40:29.931Z,99.99
2016-12-16T08:41:29.943Z,99.99
2016-12-16T08:42:29.991Z,99.99
2016-12-16T08:43:29.973Z,99.99
2016-12-16T08:44:44.909Z,99.99
2016-12-16T08:45:30.004Z,99.99
2016-12-16T08:46:30.019Z,99.99
2016-12-16T08:47:30.035Z,99.99
2016-12-16T08:48:30.065Z,99.99
2016-12-16T08:49:30.071Z,99.99
2016-12-16T08:50:30.082Z,99.99
2016-12-16T08:51:30.097Z,99.99
2016-12-16T08:52:30.113Z,99.99
2016-12-16T08:54:30.143Z,99.48
2016-12-16T08:55:30.161Z,99.48
2016-12-16T08:56:30.176Z,98.91
2016-12-16T08:57:30.191Z,99.1
2016-12-16T08:58:30.207Z,98.91
2016-12-16T08:59:30.222Z,98.63
2016-12-16T09:00:30.239Z,98.82
2016-12-16T09:01:30.254Z,98.72
2016-12-16T09:02:30.270Z,98.72
2016-12-16T09:03:30.287Z,98.72
2016-12-16T09:04:30.302Z,98.53
2016-12-16T09:05:30.316Z,98.25
2016-12-16T09:06:30.332Z,97.68
2016-12-16T09:07:30.348Z,97.58
2016-12-16T09:08:30.368Z,97.96
2016-12-16T09:09:30.381Z,97.77
2016-12-16T09:10:30.399Z,97.87
2016-12-16T09:12:30.435Z,97.39
2016-12-16T09:13:30.445Z,96.92
2016-12-16T09:14:30.460Z,97.11
2016-12-16T09:15:30.476Z,96.83
2016-12-16T09:16:45.409Z,96.83
2016-12-16T09:17:30.508Z,96.54
2016-12-16T09:18:30.522Z,97.11
2016-12-16T09:19:30.537Z,97.02
2016-12-16T09:20:30.555Z,96.35
2016-12-16T09:21:30.570Z,96.35
2016-12-16T09:22:30.586Z,96.16
2016-12-16T09:23:30.652Z,96.5
2016-12-16T09:24:30.617Z,95.93
2016-12-16T09:25:30.634Z,96.21
2016-12-16T09:26:30.650Z,96.12
2016-12-16T09:27:30.666Z,95.45
2016-12-16T09:28:30.732Z,95.45
2016-12-16T09:29:30.697Z,95.55
2016-12-16T09:30:30.714Z,95.45
2016-12-16T09:31:30.731Z,95.74
2016-12-16T09:32:45.664Z,95.26
2016-12-16T09:33:30.765Z,95.64
2016-12-16T09:34:30.777Z,95.07
2016-12-16T09:35:30.794Z,95.26
2016-12-16T09:36:30.808Z,94.89
2016-12-16T09:37:30.876Z,95.07
2016-12-16T09:38:30.842Z,94.89
2016-12-16T09:39:30.858Z,94.98
2016-12-16T09:40:30.875Z,94.98
2016-12-16T09:41:30.891Z,94.6
2016-12-16T09:42:30.906Z,94.6
2016-12-16T09:43:30.931Z,94.42
2016-12-16T09:44:30.949Z,94.79
2016-12-16T09:45:30.956Z,94.32
2016-12-16T09:46:30.974Z,94.23
2016-12-16T09:47:30.988Z,94.04
2016-12-16T09:48:45.922Z,93.65
2016-12-16T09:49:31.020Z,94.04
2016-12-16T09:50:31.040Z,93.94
2016-12-16T09:51:31.055Z,93.94
2016-12-16T09:52:31.372Z,93.65
2016-12-16T09:53:31.086Z,93.75
2016-12-16T09:54:31.103Z,93.46
2016-12-16T09:55:31.119Z,93.65
2016-12-16T09:56:31.138Z,93.46
2016-12-16T09:57:31.150Z,93.27
2016-12-16T09:58:31.168Z,93.46
2016-12-16T09:59:31.181Z,93.27
2016-12-16T10:01:31.216Z,93.18
2016-12-16T10:02:31.234Z,93.27
2016-12-16T10:03:31.251Z,92.76
2016-12-16T10:04:46.183Z,92.52
2016-12-16T10:05:31.281Z,92.85
2016-12-16T10:06:31.299Z,92.94
2016-12-16T10:07:31.313Z,92.99
2016-12-16T10:08:31.329Z,92.85
2016-12-16T10:09:31.346Z,93.13
2016-12-16T10:10:31.363Z,92.66
2016-12-16T10:11:31.378Z,92.47
2016-12-16T10:12:31.396Z,92.09
2016-12-16T10:13:31.414Z,92
2016-12-16T10:14:31.431Z,92.38
2016-12-16T10:16:31.464Z,92.38
2016-12-16T10:17:31.478Z,91.62
2016-12-16T10:18:31.498Z,91.71
2016-12-16T10:19:46.430Z,91.43
2016-12-16T10:20:31.529Z,91.33
2016-12-16T10:21:31.548Z,91.62
2016-12-16T10:22:31.561Z,91.43
2016-12-16T10:23:31.578Z,91.52
2016-12-16T10:24:31.596Z,91.14
2016-12-16T10:25:31.611Z,90.86
2016-12-16T10:26:31.628Z,91.24
2016-12-16T10:27:31.644Z,90.67
2016-12-16T10:28:31.661Z,90.67
2016-12-16T10:29:31.678Z,91.05
2016-12-16T10:32:31.731Z,90.58
2016-12-16T10:33:31.743Z,90.95
2016-12-16T10:34:31.761Z,90.67
2016-12-16T10:35:31.778Z,90.67
2016-12-16T10:36:31.800Z,90.1
2016-12-16T10:37:31.811Z,90.1
2016-12-16T10:38:31.829Z,90.1
2016-12-16T10:39:31.842Z,89.82
2016-12-16T10:40:31.863Z,90.29
2016-12-16T10:41:31.879Z,89.72
2016-12-16T10:42:31.894Z,89.53
2016-12-16T10:43:31.909Z,89.63
2016-12-16T10:44:31.927Z,89.72
2016-12-16T10:46:31.961Z,88.87
2016-12-16T10:48:31.993Z,89.72
2016-12-16T10:49:32.011Z,89.63
2016-12-16T10:50:32.025Z,89.15
2016-12-16T10:51:46.961Z,89.15
2016-12-16T10:52:32.060Z,89.06
2016-12-16T10:53:32.076Z,89.2
2016-12-16T10:54:32.095Z,89.29
2016-12-16T10:55:32.110Z,89.58
2016-12-16T10:56:32.128Z,89.29
2016-12-16T10:57:32.145Z,89.29
2016-12-16T10:58:32.161Z,88.59
2016-12-16T10:59:32.178Z,88.82
2016-12-16T11:00:32.198Z,88.73
2016-12-16T11:01:32.217Z,88.25
2016-12-16T11:03:32.245Z,87.87
2016-12-16T11:04:32.262Z,87.77
2016-12-16T11:05:32.277Z,88.25
2016-12-16T11:06:32.293Z,88.16
2016-12-16T11:07:47.230Z,88.06
2016-12-16T11:08:32.644Z,88.06
2016-12-16T11:09:32.347Z,88.54
2016-12-16T11:10:32.367Z,88.06
2016-12-16T11:11:32.380Z,87.92
2016-12-16T11:12:32.399Z,88.16
2016-12-16T11:13:32.420Z,88.06
2016-12-16T11:14:32.432Z,88.16
2016-12-16T11:15:32.449Z,87.97
2016-12-16T11:16:32.465Z,88.16
2016-12-16T11:17:32.484Z,88.16
2016-12-16T11:18:32.501Z,88.25
2016-12-16T11:19:32.518Z,87.59
2016-12-16T11:20:32.534Z,87.4
2016-12-16T11:21:32.550Z,87.59
2016-12-16T11:22:32.584Z,87.3
2016-12-16T11:23:47.503Z,87.49
2016-12-16T11:24:32.603Z,87.02
2016-12-16T11:25:32.620Z,86.74
2016-12-16T11:26:32.667Z,86.83
2016-12-16T11:27:32.653Z,86.93
2016-12-16T11:28:32.672Z,86.64
2016-12-16T11:29:32.696Z,86.26
2016-12-16T11:30:32.707Z,86.45
2016-12-16T11:31:32.723Z,86.35
2016-12-16T11:32:32.739Z,86.16
2016-12-16T11:33:32.764Z,86.26
2016-12-16T11:34:32.773Z,86.16
2016-12-16T11:35:32.790Z,86.07
2016-12-16T11:36:32.810Z,86.26
2016-12-16T11:37:32.827Z,85.97
2016-12-16T11:38:32.843Z,85.88
2016-12-16T11:39:47.778Z,85.69
2016-12-16T11:40:32.879Z,85.97
2016-12-16T11:41:32.896Z,86.07
2016-12-16T11:42:33.012Z,85.31
2016-12-16T11:43:32.931Z,85.41
2016-12-16T11:44:32.946Z,85.78
2016-12-16T11:45:32.963Z,86.16
2016-12-16T11:46:32.980Z,85.97
2016-12-16T11:47:32.998Z,85.13
2016-12-16T11:49:33.031Z,85.41
2016-12-16T11:51:33.066Z,85.41
2016-12-16T11:52:33.086Z,85.6
2016-12-16T11:53:33.105Z,85.6
2016-12-16T11:54:48.037Z,85.88
2016-12-16T11:55:33.141Z,85.6
2016-12-16T11:56:33.152Z,86.07
2016-12-16T11:57:33.170Z,86.16
2016-12-16T11:58:33.192Z,86.26
2016-12-16T11:59:33.205Z,86.45
2016-12-16T12:00:33.222Z,86.16
2016-12-16T12:01:33.239Z,85.69
2016-12-16T12:02:33.569Z,86.07
2016-12-16T12:03:33.273Z,86.26
2016-12-16T12:05:33.311Z,86.35
2016-12-16T12:06:33.326Z,86.07
2016-12-16T12:07:33.344Z,86.26
2016-12-16T12:08:33.363Z,86.26
2016-12-16T12:09:33.383Z,86.35
2016-12-16T12:10:33.396Z,86.07
2016-12-16T12:11:33.444Z,86.07
2016-12-16T12:12:33.431Z,86.26
2016-12-16T12:13:33.448Z,86.45
2016-12-16T12:14:33.463Z,85.78
2016-12-16T12:15:33.484Z,85.78
2016-12-16T12:16:33.498Z,85.41
2016-12-16T12:17:33.518Z,85.97
2016-12-16T12:18:33.534Z,85.31
2016-12-16T12:20:33.568Z,85.88
2016-12-16T12:21:33.588Z,85.5
2016-12-16T12:22:33.604Z,85.97
2016-12-16T12:23:33.620Z,85.69
2016-12-16T12:24:33.637Z,86.07
2016-12-16T12:25:33.654Z,85.97
2016-12-16T12:26:48.590Z,85.88
2016-12-16T12:27:33.689Z,84.74
2016-12-16T12:28:33.709Z,85.31
2016-12-16T12:29:33.724Z,86.07
2016-12-16T12:30:33.740Z,85.5
2016-12-16T12:31:33.759Z,84.94
2016-12-16T12:32:33.778Z,84.74
2016-12-16T12:33:33.793Z,84.74
2016-12-16T12:34:33.811Z,85.03
2016-12-16T12:35:33.828Z,85.22
2016-12-16T12:36:33.848Z,84.84
2016-12-16T12:38:33.881Z,84.84
2016-12-16T12:39:33.897Z,85.41
2016-12-16T12:40:33.915Z,84.94
2016-12-16T12:41:33.932Z,85.03
2016-12-16T12:42:48.868Z,85.78
2016-12-16T12:43:33.967Z,85.5
2016-12-16T12:44:34.036Z,85.31
2016-12-16T12:45:34.014Z,85.6
2016-12-16T12:46:34.019Z,85.6
2016-12-16T12:47:34.037Z,85.5
2016-12-16T12:48:34.055Z,85.97
2016-12-16T12:49:34.071Z,85.41
2016-12-16T12:50:34.090Z,85.69
2016-12-16T12:51:34.108Z,85.5
2016-12-16T12:53:34.143Z,85.41
2016-12-16T12:54:34.473Z,85.5
2016-12-16T12:56:34.193Z,86.07
2016-12-16T12:57:34.211Z,86.07
2016-12-16T12:58:49.146Z,86.07
2016-12-16T12:59:34.245Z,85.78
2016-12-16T13:00:34.265Z,85.88
2016-12-16T13:01:34.281Z,85.97
2016-12-16T13:02:34.297Z,85.41
2016-12-16T13:03:34.315Z,85.5
2016-12-16T13:04:34.333Z,85.6
2016-12-16T13:06:34.367Z,85.97
2016-12-16T13:08:34.402Z,85.88
2016-12-16T13:09:34.418Z,85.22
2016-12-16T13:10:34.437Z,85.41
2016-12-16T13:11:34.453Z,86.16
2016-12-16T13:12:34.476Z,85.88
2016-12-16T13:13:34.489Z,85.97
2016-12-16T13:14:49.424Z,86.07
2016-12-16T13:15:34.828Z,85.97
2016-12-16T13:16:34.541Z,86.64
2016-12-16T13:17:34.557Z,86.26
2016-12-16T13:18:34.575Z,86.26
2016-12-16T13:19:34.591Z,86.07
2016-12-16T13:20:34.609Z,86.35
2016-12-16T13:21:34.630Z,87.12
2016-12-16T13:22:34.644Z,86.55
2016-12-16T13:23:34.663Z,86.45
2016-12-16T13:24:34.680Z,86.55
2016-12-16T13:27:34.783Z,87.21
2016-12-16T13:28:34.749Z,87.12
2016-12-16T13:29:49.685Z,87.02
2016-12-16T13:30:34.786Z,86.74
2016-12-16T13:31:34.803Z,87.21
2016-12-16T13:32:34.820Z,86.83
2016-12-16T13:33:34.835Z,86.55
2016-12-16T13:34:34.854Z,86.93
2016-12-16T13:35:34.868Z,86.93
2016-12-16T13:36:34.888Z,86.93
2016-12-16T13:37:34.903Z,87.02
2016-12-16T13:38:34.920Z,87.3
2016-12-16T13:39:34.939Z,87.97
2016-12-16T13:41:34.972Z,87.97
2016-12-16T13:42:34.988Z,87.97
2016-12-16T13:43:35.006Z,87.97
2016-12-16T13:44:35.074Z,87.59
2016-12-16T13:45:35.042Z,87.73
2016-12-16T13:46:35.057Z,87.68
2016-12-16T13:47:35.079Z,87.59
2016-12-16T13:48:35.093Z,87.83
2016-12-16T13:49:35.109Z,87.83
2016-12-16T13:50:35.127Z,88.02
2016-12-16T13:51:35.143Z,88.11